createdAt,value
2023-01-19T00:00:33.064Z,93.97
2023-01-19T00:03:37.224Z,94.59
2023-01-19T00:06:40.155Z,94.21
2023-01-19T00:09:43.634Z,94.92
2023-01-19T00:12:46.577Z,94.35
2023-01-19T00:15:49.844Z,94.49
2023-01-19T00:18:53.249Z,94.19
2023-01-19T00:21:56.630Z,94.06
2023-01-19T00:24:59.515Z,94.19
2023-01-19T00:28:02.734Z,94.22
2023-01-19T00:31:05.801Z,94.25
2023-01-19T00:34:09.335Z,94.25
2023-01-19T00:37:12.574Z,94.05
2023-01-19T00:40:15.956Z,94.02
2023-01-19T00:43:18.734Z,94.66
2023-01-19T00:46:27.333Z,94.46
2023-01-19T00:49:30.292Z,94.71
2023-01-19T00:52:33.715Z,94.70
2023-01-19T00:55:36.439Z,95.00
2023-01-19T00:58:39.460Z,94.82
2023-01-19T01:01:46.004Z,95.22
2023-01-19T01:04:55.043Z,95.10
2023-01-19T01:07:58.173Z,95.07
2023-01-19T01:11:02.379Z,94.91
2023-01-19T01:14:05.311Z,95.30
2023-01-19T01:17:11.664Z,95.61
2023-01-19T01:20:19.373Z,96.21
2023-01-19T01:23:23.214Z,96.13
2023-01-19T01:26:27.154Z,95.86
2023-01-19T01:29:31.052Z,95.72
2023-01-19T01:32:34.044Z,95.01
2023-01-19T01:35:37.298Z,94.94
2023-01-19T01:38:41.230Z,94.83
2023-01-19T01:41:44.466Z,95.11
2023-01-19T01:44:50.420Z,95.15
2023-01-19T01:47:57.521Z,95.49
2023-01-19T01:51:26.222Z,95.44
2023-01-19T01:54:32.921Z,95.48
2023-01-19T01:57:44.104Z,96.09
2023-01-19T02:01:05.912Z,96.25
2023-01-19T02:04:09.410Z,95.96
2023-01-19T02:07:36.486Z,95.58
2023-01-19T02:11:00.129Z,95.40
2023-01-19T02:14:06.959Z,95.00
2023-01-19T02:17:10.244Z,95.02
2023-01-19T02:20:14.080Z,94.90
2023-01-19T02:23:32.107Z,95.11
2023-01-19T02:26:39.370Z,94.90
2023-01-19T02:29:42.847Z,94.44
2023-01-19T02:32:46.037Z,94.20
2023-01-19T02:35:52.508Z,94.42
2023-01-19T02:39:00.440Z,94.46
2023-01-19T02:42:11.198Z,94.38
2023-01-19T02:45:17.459Z,94.52
2023-01-19T02:48:21.508Z,94.47
2023-01-19T02:51:25.460Z,94.47
2023-01-19T02:54:34.237Z,94.24
2023-01-19T02:57:56.753Z,94.22
2023-01-19T03:01:34.712Z,94.11
2023-01-19T03:04:56.721Z,94.18
2023-01-19T03:08:25.497Z,93.97
2023-01-19T03:11:33.917Z,93.54
2023-01-19T03:14:45.403Z,93.92
2023-01-19T03:17:51.075Z,94.18
2023-01-19T03:20:58.449Z,94.03
2023-01-19T03:24:05.154Z,93.96
2023-01-19T03:27:17.739Z,94.22
2023-01-19T03:30:26.368Z,94.07
2023-01-19T03:33:33.356Z,94.23
2023-01-19T03:36:41.380Z,94.35
2023-01-19T03:39:44.754Z,94.57
2023-01-19T03:42:50.432Z,94.55
2023-01-19T03:45:55.543Z,94.93
2023-01-19T03:48:59.600Z,95.21
2023-01-19T03:52:02.883Z,95.41
2023-01-19T03:55:06.581Z,95.14
2023-01-19T03:58:10.411Z,95.37
2023-01-19T04:01:15.233Z,95.18
2023-01-19T04:04:18.618Z,95.31
2023-01-19T04:07:21.421Z,94.87
2023-01-19T04:10:24.835Z,94.17
2023-01-19T04:13:30.227Z,94.20
2023-01-19T04:16:33.570Z,94.24
2023-01-19T04:19:36.337Z,94.48
2023-01-19T04:22:39.822Z,94.75
2023-01-19T04:25:42.696Z,94.78
2023-01-19T04:28:46.248Z,94.78
2023-01-19T04:31:48.991Z,95.04
2023-01-19T04:34:52.307Z,94.96
2023-01-19T04:37:55.181Z,95.09
2023-01-19T04:40:58.476Z,95.07
2023-01-19T04:44:01.344Z,95.11
2023-01-19T04:47:04.797Z,95.31
2023-01-19T04:50:08.718Z,95.20
2023-01-19T04:53:13.925Z,95.57
2023-01-19T04:56:16.836Z,95.50
2023-01-19T04:59:20.700Z,95.50
2023-01-19T05:02:24.332Z,95.61
2023-01-19T05:05:27.787Z,95.44
2023-01-19T05:08:30.646Z,95.74
2023-01-19T05:11:33.838Z,95.64
2023-01-19T05:14:37.012Z,96.37
2023-01-19T05:17:40.501Z,95.95
2023-01-19T05:20:43.436Z,96.14
2023-01-19T05:23:46.824Z,96.32
2023-01-19T05:26:49.762Z,96.61
2023-01-19T05:29:52.982Z,97.09
2023-01-19T05:32:56.001Z,96.87
2023-01-19T05:35:59.076Z,96.93
2023-01-19T05:39:01.916Z,96.81
2023-01-19T05:42:05.176Z,96.44
2023-01-19T05:45:08.840Z,96.23
2023-01-19T05:48:12.008Z,96.05
2023-01-19T05:51:15.478Z,95.79
2023-01-19T05:54:19.020Z,95.62
2023-01-19T05:57:22.625Z,95.65
2023-01-19T06:00:27.793Z,95.19
2023-01-19T06:03:30.845Z,95.28
2023-01-19T06:06:33.727Z,95.14
2023-01-19T06:09:36.776Z,94.97
2023-01-19T06:12:41.769Z,95.28
2023-01-19T06:15:45.705Z,95.21
2023-01-19T06:18:48.564Z,94.98
2023-01-19T06:21:52.605Z,95.23
2023-01-19T06:24:55.383Z,95.00
2023-01-19T06:27:58.474Z,95.00
2023-01-19T06:31:01.793Z,95.26
2023-01-19T06:34:05.070Z,95.23
2023-01-19T06:37:07.739Z,95.35
2023-01-19T06:40:13.700Z,95.36
2023-01-19T06:43:17.259Z,95.57
2023-01-19T06:46:20.370Z,95.25
2023-01-19T06:49:23.045Z,95.48
2023-01-19T06:52:26.140Z,95.43
2023-01-19T06:55:28.898Z,95.57
2023-01-19T06:58:32.175Z,95.45
2023-01-19T07:01:35.276Z,95.73
2023-01-19T07:04:38.583Z,95.79
2023-01-19T07:07:43.365Z,95.95
2023-01-19T07:11:26.869Z,96.07
2023-01-19T07:14:09.524Z,96.09
2023-01-19T07:17:13.256Z,96.25
2023-01-19T07:20:17.655Z,96.17
2023-01-19T07:23:21.206Z,96.11
2023-01-19T07:26:25.484Z,96.08
2023-01-19T07:29:28.714Z,96.21
2023-01-19T07:32:31.825Z,96.41
2023-01-19T07:35:35.161Z,96.26
2023-01-19T07:38:38.170Z,96.01
2023-01-19T07:41:41.387Z,96.12
2023-01-19T07:44:44.297Z,96.03
2023-01-19T07:47:52.173Z,95.95
2023-01-19T07:51:00.482Z,95.80
2023-01-19T07:54:03.836Z,95.74
2023-01-19T07:57:06.651Z,95.39
2023-01-19T08:00:10.567Z,95.18
2023-01-19T08:03:15.103Z,94.95
2023-01-19T08:06:25.863Z,94.61
2023-01-19T08:09:28.855Z,94.46
2023-01-19T08:12:31.995Z,94.15
2023-01-19T08:15:34.835Z,94.09
2023-01-19T08:18:38.259Z,93.93
2023-01-19T08:21:41.294Z,93.73
2023-01-19T08:24:44.641Z,93.57
2023-01-19T08:27:47.553Z,93.49
2023-01-19T08:30:56.482Z,93.33
2023-01-19T08:33:59.502Z,92.86
2023-01-19T08:37:02.695Z,93.04
2023-01-19T08:40:06.929Z,92.88
2023-01-19T08:43:13.598Z,92.61
2023-01-19T08:46:17.785Z,92.67
2023-01-19T08:49:21.044Z,92.69
2023-01-19T08:52:26.613Z,92.55
2023-01-19T08:55:30.421Z,92.61
2023-01-19T08:58:33.266Z,92.59
2023-01-19T09:01:37.635Z,92.88
2023-01-19T09:04:40.609Z,92.85
2023-01-19T09:07:46.862Z,92.68
2023-01-19T09:10:51.828Z,92.67
2023-01-19T09:13:55.004Z,92.69
2023-01-19T09:16:57.821Z,92.87
2023-01-19T09:20:01.228Z,92.95
2023-01-19T09:23:04.514Z,93.00
2023-01-19T09:26:07.748Z,92.82
2023-01-19T09:29:10.732Z,92.99
2023-01-19T09:32:14.913Z,93.14
2023-01-19T09:35:17.787Z,93.14
2023-01-19T09:38:22.680Z,93.12
2023-01-19T09:41:26.561Z,93.76
2023-01-19T09:44:33.945Z,93.49
2023-01-19T09:47:38.785Z,93.71
2023-01-19T09:50:46.839Z,93.82
2023-01-19T09:54:16.015Z,93.97
2023-01-19T09:57:19.569Z,94.09
2023-01-19T10:00:24.786Z,93.90
2023-01-19T10:03:28.074Z,94.18
2023-01-19T10:06:31.289Z,94.13
2023-01-19T10:09:53.711Z,93.89
2023-01-19T10:13:54.502Z,94.04
2023-01-19T10:17:43.079Z,94.11
2023-01-19T10:20:52.777Z,94.24
2023-01-19T10:24:00.956Z,93.96
2023-01-19T10:27:09.437Z,93.62
2023-01-19T10:30:24.365Z,94.38
2023-01-19T10:33:35.541Z,94.05
2023-01-19T10:36:40.667Z,93.97
2023-01-19T10:39:52.673Z,94.09
2023-01-19T10:42:57.276Z,94.46
2023-01-19T10:46:01.267Z,94.18
2023-01-19T10:49:05.137Z,94.36
2023-01-19T10:52:20.023Z,94.46
2023-01-19T10:55:41.579Z,94.37
2023-01-19T10:58:44.431Z,94.68
2023-01-19T11:02:04.282Z,94.79
2023-01-19T11:05:26.077Z,94.89
2023-01-19T11:08:31.206Z,95.02
2023-01-19T11:11:43.387Z,95.16
2023-01-19T11:14:48.006Z,95.06
2023-01-19T11:17:52.155Z,95.11
2023-01-19T11:20:58.318Z,95.51
2023-01-19T11:24:05.540Z,95.18
2023-01-19T11:27:09.155Z,95.39
2023-01-19T11:30:21.838Z,95.25
2023-01-19T11:33:32.646Z,95.20
2023-01-19T11:36:36.761Z,95.03
2023-01-19T11:39:55.439Z,95.30
2023-01-19T11:42:59.029Z,95.21
2023-01-19T11:46:03.109Z,95.33
2023-01-19T11:49:13.149Z,95.47
2023-01-19T11:52:38.022Z,95.59
2023-01-19T11:55:57.359Z,95.29
2023-01-19T11:59:02.639Z,95.04
2023-01-19T12:02:38.490Z,95.20
2023-01-19T12:05:48.191Z,95.20
2023-01-19T12:09:06.252Z,95.00
2023-01-19T12:12:15.848Z,95.07
2023-01-19T12:15:33.352Z,95.17
2023-01-19T12:19:08.314Z,95.04
2023-01-19T12:22:15.836Z,95.42
2023-01-19T12:25:30.157Z,95.59
2023-01-19T12:28:37.984Z,95.64
2023-01-19T12:31:43.322Z,95.66
2023-01-19T12:34:52.156Z,95.60
2023-01-19T12:37:55.297Z,95.92
2023-01-19T12:41:21.997Z,95.75
2023-01-19T12:44:28.054Z,95.93
2023-01-19T12:47:30.904Z,96.22
2023-01-19T12:50:38.424Z,96.55
2023-01-19T12:53:59.925Z,96.89
2023-01-19T12:57:19.553Z,97.11
2023-01-19T13:00:22.210Z,97.11
2023-01-19T13:03:28.156Z,97.06
2023-01-19T13:06:49.416Z,97.07
2023-01-19T13:09:52.570Z,97.31
2023-01-19T13:13:17.603Z,97.37
2023-01-19T13:16:21.103Z,97.42
2023-01-19T13:19:35.330Z,97.58
2023-01-19T13:22:50.684Z,97.83
2023-01-19T13:26:01.479Z,97.83
2023-01-19T13:29:14.274Z,98.10
2023-01-19T13:32:21.303Z,98.40
2023-01-19T13:35:25.015Z,98.57
2023-01-19T13:38:29.559Z,98.59
2023-01-19T13:41:38.170Z,98.63
2023-01-19T13:44:52.656Z,98.82
2023-01-19T13:47:58.221Z,98.81
2023-01-19T13:51:07.385Z,99.02
2023-01-19T13:54:16.648Z,99.21
2023-01-19T13:57:31.323Z,99.04
2023-01-19T14:00:34.495Z,99.47
2023-01-19T14:03:41.100Z,99.36
2023-01-19T14:06:48.911Z,99.24
2023-01-19T14:10:06.761Z,99.50
2023-01-19T14:13:22.553Z,99.46
2023-01-19T14:16:25.769Z,99.46
2023-01-19T14:19:28.901Z,99.34
2023-01-19T14:22:39.087Z,99.59
2023-01-19T14:25:44.933Z,99.84
2023-01-19T14:28:47.995Z,99.87
2023-01-19T14:32:02.603Z,99.58
2023-01-19T14:35:05.857Z,99.60
2023-01-19T14:38:14.728Z,99.73
2023-01-19T14:41:25.623Z,99.69
2023-01-19T14:44:41.320Z,99.64
2023-01-19T14:47:46.220Z,99.76
2023-01-19T14:51:02.793Z,99.81
2023-01-19T14:54:15.829Z,99.85
2023-01-19T14:57:18.521Z,99.78
2023-01-19T15:00:22.223Z,99.64
2023-01-19T15:03:42.869Z,99.81
2023-01-19T15:06:47.451Z,99.75
2023-01-19T15:09:50.781Z,99.94
2023-01-19T15:12:55.097Z,99.92
2023-01-19T15:15:58.647Z,100.00
2023-01-19T15:19:01.928Z,100.00
2023-01-19T15:22:12.229Z,99.87
2023-01-19T15:25:20.507Z,99.94
2023-01-19T15:28:23.288Z,100.00
2023-01-19T15:31:26.918Z,100.00
2023-01-19T15:34:29.828Z,99.97
2023-01-19T15:37:33.231Z,99.78
2023-01-19T15:40:36.093Z,99.64
2023-01-19T15:43:39.154Z,99.54
2023-01-19T15:46:41.963Z,99.42
2023-01-19T15:49:45.025Z,99.26
2023-01-19T15:52:47.895Z,99.16
2023-01-19T15:55:52.675Z,98.90
2023-01-19T15:58:56.825Z,98.98
2023-01-19T16:02:00.122Z,98.75
2023-01-19T16:05:03.871Z,98.95
2023-01-19T16:08:06.676Z,99.23
2023-01-19T16:11:16.021Z,99.08
2023-01-19T16:14:19.005Z,99.23
2023-01-19T16:17:22.182Z,98.98
2023-01-19T16:20:24.967Z,99.19
2023-01-19T16:23:28.244Z,98.92
2023-01-19T16:26:34.684Z,99.04
2023-01-19T16:29:37.999Z,99.07
2023-01-19T16:32:40.858Z,99.11
2023-01-19T16:35:44.472Z,99.17
2023-01-19T16:38:47.643Z,99.02
2023-01-19T16:41:50.867Z,99.01
2023-01-19T16:44:55.025Z,99.12
2023-01-19T16:47:58.345Z,99.34
2023-01-19T16:51:07.251Z,99.15
2023-01-19T16:54:29.578Z,99.17
2023-01-19T16:57:33.236Z,99.29
2023-01-19T17:00:38.968Z,99.18
2023-01-19T17:03:43.066Z,99.10
2023-01-19T17:06:47.051Z,99.25
2023-01-19T17:09:50.675Z,99.07
2023-01-19T17:12:54.820Z,98.96
2023-01-19T17:16:02.976Z,98.78
2023-01-19T17:19:08.061Z,98.78
2023-01-19T17:22:13.529Z,98.60
2023-01-19T17:25:17.752Z,98.78
2023-01-19T17:28:21.143Z,98.70
2023-01-19T17:31:28.007Z,98.58
2023-01-19T17:34:30.862Z,98.62
2023-01-19T17:37:36.932Z,98.83
2023-01-19T17:40:40.399Z,98.60
2023-01-19T17:43:45.263Z,98.65
2023-01-19T17:46:48.940Z,98.66
2023-01-19T17:49:54.785Z,98.53
2023-01-19T17:52:58.995Z,98.58
2023-01-19T17:56:14.971Z,98.39
2023-01-19T17:59:19.313Z,98.41
2023-01-19T18:02:26.846Z,98.26
2023-01-19T18:05:33.890Z,98.35
2023-01-19T18:08:43.578Z,98.15
2023-01-19T18:11:48.119Z,98.14
2023-01-19T18:14:52.152Z,97.95
2023-01-19T18:17:57.427Z,97.99
2023-01-19T18:21:03.687Z,97.75
2023-01-19T18:24:08.083Z,97.67
2023-01-19T18:27:12.285Z,97.54
2023-01-19T18:30:17.631Z,97.36
2023-01-19T18:33:21.015Z,97.18
2023-01-19T18:36:25.911Z,97.34
2023-01-19T18:39:31.861Z,97.06
2023-01-19T18:42:36.393Z,97.13
2023-01-19T18:45:42.795Z,96.98
2023-01-19T18:48:47.760Z,96.66
2023-01-19T18:51:53.022Z,96.65
2023-01-19T18:54:57.506Z,96.42
2023-01-19T18:58:02.253Z,96.24
2023-01-19T19:01:33.227Z,95.90
2023-01-19T19:04:37.422Z,95.83
2023-01-19T19:07:43.017Z,95.70
2023-01-19T19:10:50.740Z,95.77
2023-01-19T19:13:57.866Z,95.54
2023-01-19T19:17:01.957Z,95.47
2023-01-19T19:20:06.866Z,95.12
2023-01-19T19:23:12.437Z,95.12
2023-01-19T19:26:16.487Z,95.04
2023-01-19T19:29:20.480Z,94.84
2023-01-19T19:32:24.573Z,94.90
2023-01-19T19:35:31.283Z,94.82
2023-01-19T19:38:44.624Z,94.56
2023-01-19T19:41:50.475Z,94.33
2023-01-19T19:44:57.746Z,94.20
2023-01-19T19:48:02.215Z,93.85
2023-01-19T19:51:18.539Z,93.92
2023-01-19T19:54:23.415Z,93.75
2023-01-19T19:57:34.482Z,93.72
2023-01-19T20:00:38.912Z,93.76
2023-01-19T20:03:43.640Z,93.81
2023-01-19T20:06:48.620Z,93.63
2023-01-19T20:09:54.327Z,93.61
2023-01-19T20:12:57.851Z,93.47
2023-01-19T20:16:07.191Z,93.43
2023-01-19T20:19:13.690Z,93.31
2023-01-19T20:22:18.872Z,93.08
2023-01-19T20:25:22.893Z,93.06
2023-01-19T20:28:27.682Z,92.83
2023-01-19T20:31:35.119Z,92.97
2023-01-19T20:34:39.814Z,93.14
2023-01-19T20:37:43.887Z,93.21
2023-01-19T20:40:48.594Z,93.13
2023-01-19T20:43:53.499Z,92.96
2023-01-19T20:46:59.078Z,92.71
2023-01-19T20:50:02.803Z,92.73
2023-01-19T20:53:07.295Z,92.55
2023-01-19T20:56:13.746Z,92.34
2023-01-19T20:59:18.237Z,92.34
2023-01-19T21:02:22.574Z,92.26
2023-01-19T21:05:26.696Z,92.11
2023-01-19T21:08:31.161Z,92.09
2023-01-19T21:11:36.880Z,92.08
2023-01-19T21:14:40.548Z,91.77
2023-01-19T21:17:45.228Z,91.83
2023-01-19T21:20:49.692Z,91.90
2023-01-19T21:23:55.651Z,91.75
2023-01-19T21:26:58.680Z,91.61
2023-01-19T21:30:02.636Z,91.48
2023-01-19T21:33:08.134Z,91.55
2023-01-19T21:36:11.725Z,91.38
2023-01-19T21:39:17.190Z,91.25
2023-01-19T21:42:20.581Z,91.17
2023-01-19T21:45:23.896Z,91.57
2023-01-19T21:48:27.501Z,91.54
2023-01-19T21:51:34.999Z,91.43
2023-01-19T21:54:38.275Z,91.43
2023-01-19T21:57:41.241Z,91.23
2023-01-19T22:00:45.355Z,91.27
2023-01-19T22:03:48.595Z,91.26
2023-01-19T22:06:51.361Z,91.18
2023-01-19T22:09:54.366Z,91.30
2023-01-19T22:12:57.104Z,91.48
2023-01-19T22:16:01.615Z,91.52
2023-01-19T22:19:04.484Z,91.92
2023-01-19T22:22:07.538Z,91.94
2023-01-19T22:25:10.598Z,92.67
2023-01-19T22:28:13.766Z,93.15
2023-01-19T22:31:18.579Z,93.34
2023-01-19T22:34:21.781Z,93.26
2023-01-19T22:37:24.796Z,93.67
2023-01-19T22:40:27.998Z,93.73
2023-01-19T22:43:30.767Z,93.49
2023-01-19T22:46:36.565Z,93.45
2023-01-19T22:49:39.349Z,93.71
2023-01-19T22:52:42.699Z,93.70
2023-01-19T22:55:45.487Z,93.71
2023-01-19T22:58:49.406Z,93.59
2023-01-19T23:01:52.462Z,93.34
2023-01-19T23:04:55.635Z,93.05
2023-01-19T23:07:58.413Z,92.90
2023-01-19T23:11:10.157Z,92.62
2023-01-19T23:14:16.470Z,92.76
2023-01-19T23:17:19.670Z,92.86
2023-01-19T23:20:22.607Z,92.61
2023-01-19T23:23:25.628Z,92.63
2023-01-19T23:26:31.028Z,92.78
2023-01-19T23:29:34.272Z,92.75
2023-01-19T23:32:37.121Z,93.56
2023-01-19T23:35:40.266Z,93.61
2023-01-19T23:38:48.032Z,93.20
2023-01-19T23:41:51.271Z,93.04
2023-01-19T23:44:54.055Z,92.59
2023-01-19T23:47:57.119Z,92.37
2023-01-19T23:51:00.000Z,92.05
2023-01-19T23:54:03.126Z,92.01
2023-01-19T23:57:05.806Z,91.55
